createdAt,value
2022-08-09T00:02:19.944Z,99766.31
2022-08-09T00:06:15.805Z,99762.75
2022-08-09T00:08:32.112Z,99761.16
2022-08-09T00:11:24.259Z,99763.16
2022-08-09T00:14:11.475Z,99769.13
2022-08-09T00:17:03.758Z,99773.16
2022-08-09T00:19:48.994Z,99768.34
2022-08-09T00:22:37.117Z,99773.56
2022-08-09T00:25:32.765Z,99779.13
2022-08-09T00:28:19.321Z,99782.69
2022-08-09T00:31:30.535Z,99780.34
2022-08-09T00:34:14.211Z,99764.06
2022-08-09T00:37:00.157Z,99774.41
2022-08-09T00:40:12.806Z,99770.03
2022-08-09T00:44:18.699Z,99766.84
2022-08-09T00:45:56.598Z,99767.69
2022-08-09T00:48:47.556Z,99772.44
2022-08-09T00:51:54.483Z,99773.25
2022-08-09T00:54:40.273Z,99778.84
2022-08-09T00:57:34.914Z,99767.31
2022-08-09T01:00:23.545Z,99773.31
2022-08-09T01:03:12.818Z,99780.47
2022-08-09T01:06:18.050Z,99777.69
2022-08-09T01:09:25.632Z,99775.31
2022-08-09T01:12:57.245Z,99773.31
2022-08-09T01:15:52.397Z,99774.16
2022-08-09T01:18:42.906Z,99767.00
2022-08-09T01:21:52.369Z,99775.34
2022-08-09T01:25:05.821Z,99778.13
2022-08-09T01:27:57.124Z,99766.63
2022-08-09T01:30:52.128Z,99769.41
2022-08-09T01:33:40.500Z,99774.19
2022-08-09T01:36:27.818Z,99776.97
2022-08-09T01:39:14.894Z,99779.00
2022-08-09T01:42:11.212Z,99774.59
2022-08-09T01:44:57.459Z,99774.59
2022-08-09T01:47:46.794Z,99768.66
2022-08-09T01:50:41.877Z,99777.84
2022-08-09T01:53:41.483Z,99783.03
2022-08-09T01:56:29.055Z,99781.81
2022-08-09T01:59:19.001Z,99788.59
2022-08-09T02:02:05.519Z,99782.25
2022-08-09T02:04:52.154Z,99782.25
2022-08-09T02:08:38.590Z,99785.81
2022-08-09T02:10:54.944Z,99791.81
2022-08-09T02:13:41.802Z,99793.03
2022-08-09T02:16:35.182Z,99799.38
2022-08-09T02:19:43.063Z,99795.81
2022-08-09T02:22:36.493Z,99789.88
2022-08-09T02:25:27.508Z,99802.19
2022-08-09T02:28:42.250Z,99803.00
2022-08-09T02:31:36.350Z,99791.88
2022-08-09T02:34:40.527Z,99806.19
2022-08-09T02:37:31.843Z,99805.41
2022-08-09T02:40:24.976Z,99800.63
2022-08-09T02:43:13.240Z,99801.44
2022-08-09T02:46:01.497Z,99797.09
2022-08-09T02:48:51.371Z,99795.88
2022-08-09T02:51:40.461Z,99804.25
2022-08-09T02:54:27.537Z,99800.66
2022-08-09T02:57:23.559Z,99806.25
2022-08-09T03:00:20.965Z,99802.69
2022-08-09T03:03:13.149Z,99803.47
2022-08-09T03:06:07.752Z,99803.91
2022-08-09T03:08:54.582Z,99805.47
2022-08-09T03:12:10.640Z,99809.88
2022-08-09T03:14:47.289Z,99795.94
2022-08-09T03:17:33.341Z,99797.97
2022-08-09T03:20:20.474Z,99804.72
2022-08-09T03:23:15.501Z,99799.94
2022-08-09T03:26:10.201Z,99794.44
2022-08-09T03:28:59.304Z,99803.16
2022-08-09T03:32:00.527Z,99807.19
2022-08-09T03:34:48.234Z,99802.44
2022-08-09T03:37:55.673Z,99808.81
2022-08-09T03:40:44.256Z,99805.28
2022-08-09T03:43:31.973Z,99812.03
2022-08-09T03:46:20.775Z,99806.91
2022-08-09T03:49:16.631Z,99806.09
2022-08-09T03:52:07.363Z,99801.75
2022-08-09T03:54:54.238Z,99810.94
2022-08-09T03:57:53.846Z,99810.09
2022-08-09T04:00:49.458Z,99810.59
2022-08-09T04:04:01.380Z,99810.97
2022-08-09T04:06:41.164Z,99815.75
2022-08-09T04:09:47.743Z,99826.50
2022-08-09T04:12:44.566Z,99819.41
2022-08-09T04:16:17.430Z,99813.84
2022-08-09T04:18:35.507Z,99817.41
2022-08-09T04:21:22.148Z,99822.97
2022-08-09T04:24:08.183Z,99817.88
2022-08-09T04:26:54.570Z,99825.41
2022-08-09T04:29:48.636Z,99825.00
2022-08-09T04:32:37.222Z,99824.25
2022-08-09T04:35:24.163Z,99821.06
2022-08-09T04:38:09.711Z,99824.25
2022-08-09T04:40:57.180Z,99829.03
2022-08-09T04:43:49.892Z,99824.25
2022-08-09T04:46:59.323Z,99829.81
2022-08-09T04:49:54.294Z,99826.66
2022-08-09T04:52:42.183Z,99830.28
2022-08-09T04:55:28.305Z,99832.28
2022-08-09T04:58:24.439Z,99838.63
2022-08-09T05:01:16.392Z,99838.63
2022-08-09T05:04:04.706Z,99839.47
2022-08-09T05:06:50.538Z,99834.28
2022-08-09T05:09:45.263Z,99841.81
2022-08-09T05:12:35.085Z,99841.03
2022-08-09T05:15:24.819Z,99842.66
2022-08-09T05:18:38.942Z,99856.16
2022-08-09T05:21:36.436Z,99850.59
2022-08-09T05:24:33.020Z,99851.78
2022-08-09T05:27:18.155Z,99853.38
2022-08-09T05:30:04.685Z,99858.13
2022-08-09T05:32:53.258Z,99856.16
2022-08-09T05:35:39.044Z,99861.72
2022-08-09T05:38:32.538Z,99853.38
2022-08-09T05:41:17.836Z,99860.50
2022-08-09T05:44:03.152Z,99862.50
2022-08-09T05:46:50.641Z,99860.88
2022-08-09T05:50:25.804Z,99869.63
2022-08-09T05:52:43.306Z,99860.88
2022-08-09T05:55:31.181Z,99869.56
2022-08-09T05:58:18.473Z,99874.31
2022-08-09T06:01:04.125Z,99873.47
2022-08-09T06:03:58.160Z,99864.72
2022-08-09T06:06:49.998Z,99873.03
2022-08-09T06:10:01.800Z,99874.59
2022-08-09T06:12:40.933Z,99871.38
2022-08-09T06:15:27.614Z,99876.13
2022-08-09T06:18:13.469Z,99872.91
2022-08-09T06:21:01.905Z,99875.31
2022-08-09T06:23:58.515Z,99874.91
2022-08-09T06:26:47.576Z,99873.28
2022-08-09T06:29:33.757Z,99880.81
2022-08-09T06:32:53.551Z,99878.34
2022-08-09T06:35:55.911Z,99880.72
2022-08-09T06:38:50.432Z,99883.09
2022-08-09T06:41:39.699Z,99884.28
2022-08-09T06:44:43.449Z,99887.84
2022-08-09T06:47:39.397Z,99881.47
2022-08-09T06:50:24.653Z,99894.56
2022-08-09T06:53:10.963Z,99885.00
2022-08-09T06:55:56.959Z,99881.78
2022-08-09T07:00:49.820Z,99887.34
2022-08-09T07:01:54.098Z,99886.13
2022-08-09T07:04:43.284Z,99884.47
2022-08-09T07:08:00.884Z,99880.88
2022-08-09T07:10:34.773Z,99885.59
2022-08-09T07:13:28.139Z,99885.59
2022-08-09T07:16:44.009Z,99881.56
2022-08-09T07:19:23.452Z,99889.50
2022-08-09T07:22:10.904Z,99880.75
2022-08-09T07:24:57.224Z,99880.75
2022-08-09T07:27:53.090Z,99891.03
2022-08-09T07:30:39.130Z,99892.53
2022-08-09T07:33:24.753Z,99894.88
2022-08-09T07:36:10.088Z,99890.03
2022-08-09T07:39:00.890Z,99891.56
2022-08-09T07:41:48.344Z,99891.50
2022-08-09T07:44:51.973Z,99887.81
2022-08-09T07:47:49.217Z,99891.81
2022-08-09T07:50:53.109Z,99890.56
2022-08-09T07:54:06.877Z,99888.13
2022-08-09T07:56:53.349Z,99888.91
2022-08-09T07:59:50.920Z,99898.44
2022-08-09T08:02:47.975Z,99888.88
2022-08-09T08:05:53.632Z,99890.81
2022-08-09T08:09:01.539Z,99891.19
2022-08-09T08:12:24.942Z,99891.56
2022-08-09T08:14:50.625Z,99888.69
2022-08-09T08:17:52.876Z,99885.50
2022-08-09T08:20:42.802Z,99883.84
2022-08-09T08:23:28.584Z,99886.59
2022-08-09T08:26:17.663Z,99885.72
2022-08-09T08:29:12.380Z,99886.47
2022-08-09T08:32:03.274Z,99888.47
2022-08-09T08:34:51.949Z,99892.03
2022-08-09T08:38:02.049Z,99890.00
2022-08-09T08:40:49.490Z,99886.84
2022-08-09T08:43:36.124Z,99888.84
2022-08-09T08:46:31.913Z,99884.41
2022-08-09T08:49:19.295Z,99882.78
2022-08-09T08:52:10.290Z,99888.31
2022-08-09T08:54:58.999Z,99883.09
2022-08-09T08:57:56.400Z,99881.50
2022-08-09T09:00:45.597Z,99885.88
2022-08-09T09:03:42.495Z,99894.25
2022-08-09T09:06:32.207Z,99888.22
2022-08-09T09:09:58.226Z,99886.59
2022-08-09T09:12:29.695Z,99884.28
2022-08-09T09:15:28.344Z,99885.88
2022-08-09T09:18:15.924Z,99882.22
2022-08-09T09:21:02.091Z,99881.81
2022-08-09T09:23:58.463Z,99875.78
2022-08-09T09:27:02.034Z,99877.38
2022-08-09T09:33:15.576Z,99884.91
2022-08-09T09:36:19.878Z,99876.88
2022-08-09T09:39:09.812Z,99877.31
2022-08-09T09:41:56.910Z,99877.63
2022-08-09T09:44:42.483Z,99879.53
2022-08-09T09:47:28.993Z,99885.53
2022-08-09T09:50:17.591Z,99870.38
2022-08-09T09:53:16.340Z,99879.06
2022-08-09T09:56:05.788Z,99882.31
2022-08-09T09:58:53.428Z,99879.16
2022-08-09T10:01:40.883Z,99886.31
2022-08-09T10:04:30.875Z,99877.16
2022-08-09T10:07:25.918Z,99879.94
2022-08-09T10:10:11.658Z,99865.59
2022-08-09T10:12:57.552Z,99876.38
2022-08-09T10:16:09.296Z,99875.19
2022-08-09T10:18:59.762Z,99868.78
2022-08-09T10:21:49.683Z,99868.38
2022-08-09T10:24:36.426Z,99866.38
2022-08-09T10:27:28.476Z,99868.78
2022-08-09T10:34:05.001Z,99868.84
2022-08-09T10:36:32.619Z,99866.47
2022-08-09T10:39:23.367Z,99867.66
2022-08-09T10:42:16.034Z,99873.31
2022-08-09T10:45:11.890Z,99871.69
2022-08-09T10:48:26.151Z,99863.25
2022-08-09T10:51:29.733Z,99860.03
2022-08-09T10:54:26.996Z,99867.66
2022-08-09T10:57:14.173Z,99865.69
2022-08-09T11:00:01.657Z,99865.50
2022-08-09T11:03:14.428Z,99867.09
2022-08-09T11:06:23.006Z,99864.22
2022-08-09T11:09:15.274Z,99865.38
2022-08-09T11:12:26.529Z,99863.38
2022-08-09T11:15:18.617Z,99858.16
2022-08-09T11:18:04.507Z,99860.16
2022-08-09T11:20:50.086Z,99859.28
2022-08-09T11:24:01.412Z,99859.28
2022-08-09T11:26:54.537Z,99854.06
2022-08-09T11:30:05.804Z,99860.03
2022-08-09T11:33:05.895Z,99849.22
2022-08-09T11:35:57.301Z,99845.63
2022-08-09T11:38:42.991Z,99843.28
2022-08-09T11:41:38.234Z,99846.78
2022-08-09T11:44:44.145Z,99832.47
2022-08-09T11:47:46.107Z,99835.97
2022-08-09T11:52:54.224Z,99838.75
2022-08-09T11:54:14.426Z,99833.09
2022-08-09T11:58:00.760Z,99840.34
2022-08-09T12:00:53.286Z,99849.13
2022-08-09T12:03:55.834Z,99843.13
2022-08-09T12:06:55.610Z,99835.19
2022-08-09T12:09:51.024Z,99831.56
2022-08-09T12:12:47.730Z,99831.97
2022-08-09T12:15:50.122Z,99833.53
2022-08-09T12:18:42.573Z,99833.88
2022-08-09T12:21:38.872Z,99832.31
2022-08-09T12:24:25.262Z,99817.94
2022-08-09T12:28:59.794Z,99818.28
2022-08-09T12:30:36.483Z,99817.88
2022-08-09T12:33:26.501Z,99813.00
2022-08-09T12:36:33.703Z,99815.00
2022-08-09T12:39:19.614Z,99810.56
2022-08-09T12:42:09.301Z,99810.56
2022-08-09T12:44:55.180Z,99805.34
2022-08-09T12:47:50.131Z,99806.53
2022-08-09T12:50:37.268Z,99810.13
2022-08-09T12:53:36.684Z,99808.41
2022-08-09T12:56:43.111Z,99808.75
2022-08-09T12:59:40.019Z,99804.50
2022-08-09T13:02:54.154Z,99802.22
2022-08-09T13:05:51.690Z,99804.66
2022-08-09T13:09:07.817Z,99809.81
2022-08-09T13:12:01.886Z,99805.91
2022-08-09T13:14:53.871Z,99796.44
2022-08-09T13:17:58.846Z,99794.78
2022-08-09T13:22:33.600Z,99796.81
2022-08-09T13:24:42.363Z,99797.53
2022-08-09T13:27:24.567Z,99798.22
2022-08-09T13:31:11.493Z,99793.84
2022-08-09T13:33:35.885Z,99792.66
2022-08-09T13:36:42.391Z,99799.78
2022-08-09T13:41:21.239Z,99802.16
2022-08-09T13:42:36.397Z,99803.09
2022-08-09T13:45:22.238Z,99799.09
2022-08-09T13:48:18.276Z,99800.56
2022-08-09T13:51:03.938Z,99804.66
2022-08-09T13:53:49.418Z,99799.00
2022-08-09T13:56:37.680Z,99797.00
2022-08-09T13:59:25.681Z,99797.44
2022-08-09T14:02:11.073Z,99797.00
2022-08-09T14:04:59.725Z,99795.44
2022-08-09T14:07:46.690Z,99797.06
2022-08-09T14:10:45.927Z,99792.66
2022-08-09T14:14:21.933Z,99802.22
2022-08-09T14:16:40.735Z,99793.44
2022-08-09T14:19:26.903Z,99801.38
2022-08-09T14:22:20.688Z,99792.91
2022-08-09T14:25:10.019Z,99785.31
2022-08-09T14:27:57.047Z,99794.84
2022-08-09T14:30:45.135Z,99791.63
2022-08-09T14:33:38.139Z,99783.63
2022-08-09T14:36:25.898Z,99789.97
2022-08-09T14:39:21.733Z,99795.94
2022-08-09T14:42:30.801Z,99795.94
2022-08-09T14:46:55.971Z,99795.94
2022-08-09T14:48:24.043Z,99799.50
2022-08-09T14:51:12.667Z,99799.50
2022-08-09T14:53:59.570Z,99801.09
2022-08-09T14:56:57.923Z,99796.28
2022-08-09T14:59:48.444Z,99789.50
2022-08-09T15:02:34.408Z,99785.88
2022-08-09T15:05:22.216Z,99788.31
2022-08-09T15:08:10.365Z,99790.69
2022-08-09T15:11:00.457Z,99782.03
2022-08-09T15:13:55.842Z,99781.13
2022-08-09T15:16:49.215Z,99780.75
2022-08-09T15:19:36.306Z,99778.75
2022-08-09T15:22:22.724Z,99783.19
2022-08-09T15:25:11.817Z,99778.81
2022-08-09T15:28:01.411Z,99773.22
2022-08-09T15:30:59.837Z,99775.94
2022-08-09T15:34:17.227Z,99775.59
2022-08-09T15:36:53.919Z,99771.63
2022-08-09T15:39:53.598Z,99770.03
2022-08-09T15:42:42.467Z,99769.28
2022-08-09T15:45:29.512Z,99768.44
2022-08-09T15:48:29.402Z,99766.47
2022-08-09T15:52:00.770Z,99761.66
2022-08-09T15:54:33.627Z,99770.84
2022-08-09T15:57:34.009Z,99769.28
2022-08-09T16:00:26.078Z,99764.91
2022-08-09T16:03:26.598Z,99771.28
2022-08-09T16:06:32.374Z,99758.97
2022-08-09T16:09:51.585Z,99757.38
2022-08-09T16:12:30.988Z,99747.81
2022-08-09T16:16:10.160Z,99752.25
2022-08-09T16:18:31.181Z,99756.53
2022-08-09T16:21:25.504Z,99756.19
2022-08-09T16:24:35.037Z,99763.31
2022-08-09T16:27:30.457Z,99759.34
2022-08-09T16:30:29.753Z,99757.31
2022-08-09T16:33:25.345Z,99758.56
2022-08-09T16:36:18.733Z,99755.75
2022-08-09T16:39:10.535Z,99764.22
2022-08-09T16:42:03.703Z,99759.81
2022-08-09T16:44:53.598Z,99759.50
2022-08-09T16:48:39.804Z,99758.63
2022-08-09T16:51:07.874Z,99757.38
2022-08-09T16:54:25.425Z,99760.19
2022-08-09T16:57:10.760Z,99755.13
2022-08-09T17:00:04.055Z,99759.50
2022-08-09T17:02:57.440Z,99762.28
2022-08-09T17:06:08.046Z,99754.75
2022-08-09T17:09:44.948Z,99759.13
2022-08-09T17:12:20.686Z,99756.34
2022-08-09T17:15:31.283Z,99760.44
2022-08-09T17:18:26.805Z,99758.34
2022-08-09T17:21:18.663Z,99750.06
2022-08-09T17:24:26.901Z,99752.84
2022-08-09T17:27:27.439Z,99759.22
2022-08-09T17:30:22.321Z,99764.38
2022-08-09T17:33:23.902Z,99766.81
2022-08-09T17:36:15.653Z,99770.38
2022-08-09T17:39:04.991Z,99775.19
2022-08-09T17:42:02.997Z,99768.47
2022-08-09T17:44:52.007Z,99767.22
2022-08-09T17:47:49.305Z,99758.84
2022-08-09T17:50:56.258Z,99763.66
2022-08-09T17:54:01.096Z,99767.16
2022-08-09T17:56:57.579Z,99764.00
2022-08-09T18:00:05.126Z,99771.63
2022-08-09T18:02:58.939Z,99773.59
2022-08-09T18:05:53.027Z,99768.00
2022-08-09T18:08:41.043Z,99768.47
2022-08-09T18:11:29.031Z,99776.03
2022-08-09T18:14:18.347Z,99768.88
2022-08-09T18:17:06.989Z,99785.63
2022-08-09T18:20:54.308Z,99766.44
2022-08-09T18:23:05.529Z,99769.66
2022-08-09T18:25:57.410Z,99777.25
2022-08-09T18:30:35.698Z,99777.25
2022-08-09T18:31:55.777Z,99788.06
2022-08-09T18:34:41.798Z,99789.31
2022-08-09T18:37:47.829Z,99782.13
2022-08-09T18:40:33.492Z,99798.38
2022-08-09T18:43:19.259Z,99792.78
2022-08-09T18:46:51.090Z,99801.50
2022-08-09T18:49:11.839Z,99801.50
2022-08-09T18:51:59.770Z,99807.09
2022-08-09T18:54:52.661Z,99804.75
2022-08-09T18:57:44.536Z,99807.09
2022-08-09T19:00:31.261Z,99818.28
2022-08-09T19:03:16.889Z,99818.28
2022-08-09T19:06:04.793Z,99820.63
2022-08-09T19:08:54.927Z,99827.88
2022-08-09T19:11:48.144Z,99829.44
2022-08-09T19:14:33.427Z,99833.88
2022-08-09T19:17:22.291Z,99843.91
2022-08-09T19:20:08.966Z,99846.28
2022-08-09T19:22:55.159Z,99850.72
2022-08-09T19:26:00.675Z,99851.88
2022-08-09T19:28:48.769Z,99853.06
2022-08-09T19:31:44.862Z,99850.72
2022-08-09T19:34:31.296Z,99855.81
2022-08-09T19:37:16.989Z,99852.59
2022-08-09T19:40:05.620Z,99864.19
2022-08-09T19:42:53.360Z,99859.47
2022-08-09T19:45:40.495Z,99859.88
2022-08-09T19:49:00.954Z,99854.38
2022-08-09T19:51:33.460Z,99861.53
2022-08-09T19:54:25.091Z,99862.81
2022-08-09T19:57:10.603Z,99860.81
2022-08-09T19:59:59.175Z,99861.66
2022-08-09T20:04:17.917Z,99867.75
2022-08-09T20:06:03.198Z,99869.81
2022-08-09T20:08:49.502Z,99882.63
2022-08-09T20:11:45.304Z,99873.53
2022-08-09T20:14:37.307Z,99878.34
2022-08-09T20:17:48.079Z,99874.03
2022-08-09T20:20:35.213Z,99883.28
2022-08-09T20:23:23.917Z,99877.75
2022-08-09T20:26:23.848Z,99873.81
2022-08-09T20:29:18.887Z,99884.59
2022-08-09T20:32:29.179Z,99883.47
2022-08-09T20:35:15.822Z,99885.53
2022-08-09T20:38:22.564Z,99879.19
2022-08-09T20:41:07.766Z,99880.03
2022-08-09T20:43:58.355Z,99876.88
2022-08-09T20:46:45.260Z,99882.47
2022-08-09T20:49:31.066Z,99881.69
2022-08-09T20:52:20.672Z,99878.13
2022-08-09T20:55:07.472Z,99874.97
2022-08-09T20:58:08.320Z,99886.91
2022-08-09T21:01:33.186Z,99876.94
2022-08-09T21:05:51.071Z,99880.97
2022-08-09T21:07:17.000Z,99881.75
2022-08-09T21:10:02.843Z,99877.03
2022-08-09T21:15:52.081Z,99880.59
2022-08-09T21:19:01.461Z,99875.44
2022-08-09T21:21:56.118Z,99884.66
2022-08-09T21:25:01.405Z,99881.09
2022-08-09T21:27:51.110Z,99881.88
2022-08-09T21:30:40.555Z,99890.66
2022-08-09T21:33:26.514Z,99891.47
2022-08-09T21:36:26.052Z,99887.50
2022-08-09T21:39:21.901Z,99892.69
2022-08-09T21:42:16.039Z,99896.31
2022-08-09T21:45:01.912Z,99898.28
2022-08-09T21:47:50.843Z,99901.88
2022-08-09T21:50:38.854Z,99897.50
2022-08-09T21:53:40.729Z,99904.66
2022-08-09T21:56:42.880Z,99906.31
2022-08-09T21:59:42.848Z,99902.34
2022-08-09T22:02:36.320Z,99906.72
2022-08-09T22:05:35.431Z,99907.59
2022-08-09T22:08:25.541Z,99911.56
2022-08-09T22:12:06.515Z,99921.53
2022-08-09T22:14:16.756Z,99915.59
2022-08-09T22:17:05.712Z,99916.78
2022-08-09T22:19:58.877Z,99916.00
2022-08-09T22:22:45.675Z,99919.56
2022-08-09T22:26:05.421Z,99910.81
2022-08-09T22:28:43.651Z,99917.19
2022-08-09T22:31:44.121Z,99917.63
2022-08-09T22:34:30.962Z,99912.47
2022-08-09T22:37:16.905Z,99916.47
2022-08-09T22:40:04.696Z,99915.25
2022-08-09T22:42:50.267Z,99914.09
2022-08-09T22:48:11.605Z,99919.28
2022-08-09T22:48:50.672Z,99920.88
2022-08-09T22:51:43.274Z,99910.94
2022-08-09T22:54:35.462Z,99914.16
2022-08-09T22:57:21.685Z,99914.59
2022-08-09T23:00:07.889Z,99912.59
2022-08-09T23:02:57.642Z,99906.59
2022-08-09T23:05:45.858Z,99917.38
2022-08-09T23:08:46.910Z,99917.38
2022-08-09T23:11:32.214Z,99919.81
2022-08-09T23:14:17.792Z,99919.44
2022-08-09T23:17:22.890Z,99921.00
2022-08-09T23:20:08.894Z,99913.84
2022-08-09T23:22:54.765Z,99905.50
2022-08-09T23:25:39.985Z,99902.34
2022-08-09T23:28:25.327Z,99900.31
2022-08-09T23:31:10.703Z,99896.34
2022-08-09T23:33:56.122Z,99902.34
2022-08-09T23:36:41.442Z,99903.13
2022-08-09T23:39:26.602Z,99903.53
2022-08-09T23:42:12.010Z,99904.75
2022-08-09T23:44:58.162Z,99905.97
2022-08-09T23:47:43.381Z,99904.38
2022-08-09T23:50:28.896Z,99902.81
2022-08-09T23:53:14.172Z,99907.16
2022-08-09T23:56:01.455Z,99896.44
2022-08-09T23:58:51.012Z,99898.44
